CheckWX is a tool to help pilots better visualize weather data.  It is not intended as a substitute for an official pre-flight weather briefing.

09:12:12 UTC

KDHN TAF
Dothan Regional Airport
Dothan, Alabama, USA
KDHN 230520Z 2306/2406 35005KT P6SM SKC

Sep-23@
06:00 UTC

Sep-23 @ 06:00 UTC

Sep-24@
06:00 UTC

Sep-24 @ 06:00 UTC

KDHN 230520Z 2306/2406 35005KT P6SM SKC
Wind
  • 350° at 5 KTS
Cloud Levels
  • Clear skies